Time;durP1;ratioP1;P1;durP2;ratioP2;P2;SDS_P1;SDS_P2;PMS_P1;PMS_P2;Temp;Humidity;BMP_temperature;BMP_pressure;BME280_temperature;BME280_humidity;BME280_pressure;Samples;Min_cycle;Max_cycle;Signal;HPM_P1;HPM_P2
2022/08/14 00:01:37;;;;;;;0.10;0.00;;;14.10;99.90;;;;;;4972837;28;20492;-69
2022/08/14 00:04:04;;;;;;;0.28;0.10;;;14.20;99.90;;;;;;4974339;28;20038;-70
2022/08/14 00:06:31;;;;;;;0.10;0.10;;;14.40;99.90;;;;;;4974290;28;20126;-70
2022/08/14 00:08:59;;;;;;;0.40;0.20;;;14.60;99.90;;;;;;4974238;28;20019;-72
2022/08/14 00:11:29;;;;;;;0.20;0.17;;;14.80;99.90;;;;;;4974372;28;20027;-72
2022/08/14 00:13:57;;;;;;;0.38;0.17;;;14.80;99.90;;;;;;4974431;28;20069;-72
2022/08/14 00:16:24;;;;;;;0.32;0.20;;;15.00;99.90;;;;;;4972759;28;20034;-71
2022/08/14 00:18:52;;;;;;;0.22;0.10;;;15.20;99.90;;;;;;4974318;28;20102;-70
2022/08/14 00:21:19;;;;;;;1.75;0.20;;;15.50;99.90;;;;;;4974084;28;20027;-72
2022/08/14 00:23:48;;;;;;;0.98;0.20;;;15.30;99.90;;;;;;4972756;28;20027;-72
2022/08/14 00:26:15;;;;;;;0.35;0.22;;;15.10;99.90;;;;;;4972796;28;20027;-72
2022/08/14 00:28:42;;;;;;;0.43;0.30;;;15.10;99.90;;;;;;4974060;28;20023;-72
2022/08/14 00:31:10;;;;;;;0.47;0.17;;;15.00;99.90;;;;;;4974237;28;20022;-72
2022/08/14 00:33:38;;;;;;;0.63;0.20;;;15.00;99.90;;;;;;4972675;28;20019;-72
2022/08/14 00:36:06;;;;;;;0.30;0.10;;;14.90;99.90;;;;;;4973034;28;20023;-71
2022/08/14 00:38:34;;;;;;;0.50;0.10;;;14.80;99.90;;;;;;4972746;28;20054;-73
2022/08/14 00:41:05;;;;;;;0.43;0.10;;;15.10;99.90;;;;;;4975641;28;20022;-71
2022/08/14 00:43:35;;;;;;;0.28;0.20;;;15.20;99.90;;;;;;4977645;28;20062;-73
2022/08/14 00:46:08;;;;;;;0.28;0.10;;;15.20;99.90;;;;;;4977278;28;20380;-75
2022/08/14 00:48:37;;;;;;;0.88;0.10;;;15.60;99.90;;;;;;4977337;28;20018;-73
2022/08/14 00:51:09;;;;;;;0.38;0.15;;;15.80;99.90;;;;;;4977450;28;20030;-72
2022/08/14 00:53:38;;;;;;;0.25;0.20;;;15.70;99.90;;;;;;4977200;28;20102;-72
2022/08/14 00:56:08;;;;;;;0.45;0.20;;;15.80;99.90;;;;;;4975814;28;20488;-73
2022/08/14 00:58:36;;;;;;;0.10;0.10;;;15.80;99.90;;;;;;4975837;28;20038;-75
2022/08/14 01:01:10;;;;;;;0.20;0.03;;;15.80;99.90;;;;;;4977134;28;20034;-74
2022/08/14 01:03:38;;;;;;;1.17;0.10;;;15.60;99.90;;;;;;4975754;28;20055;-73
2022/08/14 01:06:08;;;;;;;0.45;0.10;;;15.50;99.90;;;;;;4976996;28;20027;-72
2022/08/14 01:08:38;;;;;;;0.38;0.00;;;15.40;99.90;;;;;;4977053;28;20046;-74
2022/08/14 01:11:06;;;;;;;0.57;0.10;;;15.30;99.90;;;;;;4975506;28;20019;-72
2022/08/14 01:13:39;;;;;;;0.10;0.00;;;15.50;99.90;;;;;;4977019;28;20034;-73
2022/08/14 01:16:10;;;;;;;0.52;0.10;;;15.50;99.90;;;;;;4975537;28;20487;-72
2022/08/14 01:21:30;;;;;;;0.65;0.17;;;15.50;99.90;;;;;;4977150;28;20065;-73
2022/08/14 01:23:58;;;;;;;0.70;0.10;;;15.40;99.90;;;;;;4975921;28;20065;-71
2022/08/14 01:26:27;;;;;;;0.35;0.20;;;15.40;99.90;;;;;;4976632;28;20031;-71
2022/08/14 01:28:58;;;;;;;0.22;0.10;;;15.50;99.80;;;;;;4976479;28;20019;-72
2022/08/14 01:31:28;;;;;;;0.20;0.20;;;15.60;99.20;;;;;;4975355;28;20078;-72
2022/08/14 01:33:58;;;;;;;0.57;0.10;;;15.50;98.70;;;;;;4976252;28;20030;-72
2022/08/14 01:36:27;;;;;;;0.20;0.00;;;15.60;98.70;;;;;;4975024;28;20757;-71
2022/08/14 01:38:56;;;;;;;0.73;0.10;;;15.70;98.80;;;;;;4976147;28;20023;-72
2022/08/14 01:41:26;;;;;;;0.40;0.13;;;15.50;98.70;;;;;;4974945;28;20399;-71
2022/08/14 01:44:02;;;;;;;0.93;0.20;;;15.50;97.80;;;;;;4976224;28;20027;-73
2022/08/14 01:46:35;;;;;;;0.32;0.20;;;15.80;97.90;;;;;;4976335;28;20495;-71
2022/08/14 01:49:07;;;;;;;0.40;0.13;;;15.80;97.10;;;;;;4976007;28;20033;-73
2022/08/14 01:51:35;;;;;;;0.45;0.10;;;16.10;97.10;;;;;;4975860;28;20019;-71
2022/08/14 01:54:14;;;;;;;0.40;0.10;;;16.30;96.70;;;;;;4975872;28;20127;-71
2022/08/14 01:56:43;;;;;;;0.28;0.10;;;16.10;97.00;;;;;;4959807;28;20031;-71
2022/08/14 01:59:23;;;;;;;0.52;0.10;;;16.00;97.20;;;;;;4974693;28;20031;-71
2022/08/14 02:01:53;;;;;;;0.30;0.13;;;16.30;97.10;;;;;;4976004;28;20026;-71
2022/08/14 02:04:21;;;;;;;0.20;0.10;;;16.50;97.70;;;;;;4976512;28;20264;-72
2022/08/14 02:06:50;;;;;;;0.65;0.20;;;16.60;96.90;;;;;;4975840;28;20019;-73
2022/08/14 02:09:20;;;;;;;0.85;0.20;;;16.60;97.10;;;;;;4975821;28;20091;-73
2022/08/14 02:11:48;;;;;;;0.47;0.20;;;16.50;96.40;;;;;;4974008;28;20033;-72
2022/08/14 02:14:16;;;;;;;0.40;0.30;;;16.10;96.60;;;;;;4975851;28;20027;-72
2022/08/14 02:16:51;;;;;;;0.20;0.10;;;15.90;97.10;;;;;;4974379;28;20361;-71
2022/08/14 02:19:26;;;;;;;0.65;0.17;;;15.70;97.90;;;;;;4976245;28;20022;-72
2022/08/14 02:21:56;;;;;;;0.40;0.30;;;16.00;97.40;;;;;;4975568;28;20027;-72
2022/08/14 02:24:28;;;;;;;0.30;0.30;;;16.20;97.40;;;;;;4974382;28;20460;-73
2022/08/14 02:26:58;;;;;;;0.50;0.20;;;16.30;99.00;;;;;;4974020;28;20046;-72
2022/08/14 02:29:28;;;;;;;0.52;0.13;;;16.20;97.10;;;;;;4975468;28;20027;-71
2022/08/14 02:32:00;;;;;;;1.70;0.15;;;16.30;97.30;;;;;;4975544;28;20114;-72
2022/08/14 02:34:35;;;;;;;0.15;0.10;;;16.40;97.00;;;;;;4974346;28;20388;-72
2022/08/14 02:37:10;;;;;;;0.85;0.10;;;16.60;96.90;;;;;;4974107;28;20396;-71
2022/08/14 02:39:43;;;;;;;0.30;0.10;;;16.70;97.00;;;;;;4973874;28;20026;-72
2022/08/14 02:42:14;;;;;;;0.22;0.10;;;17.20;97.50;;;;;;4975200;28;20387;-71
2022/08/14 02:44:44;;;;;;;0.60;0.15;;;17.20;96.90;;;;;;4974912;28;20054;-72
2022/08/14 02:47:11;;;;;;;2.15;1.00;;;17.30;97.00;;;;;;4973762;28;20039;-71
2022/08/14 02:49:39;;;;;;;0.85;0.40;;;17.30;96.60;;;;;;4975156;28;20015;-71
2022/08/14 02:52:07;;;;;;;0.68;0.35;;;17.10;96.70;;;;;;4974945;28;20015;-71
2022/08/14 02:54:36;;;;;;;0.82;0.30;;;17.00;96.90;;;;;;4973611;28;20109;-71
2022/08/14 02:57:06;;;;;;;1.02;0.70;;;17.00;97.50;;;;;;4973453;28;20030;-71
2022/08/14 02:59:35;;;;;;;0.47;0.30;;;17.00;97.90;;;;;;4958268;28;20035;-71
2022/08/14 03:02:04;;;;;;;0.20;0.20;;;17.00;97.10;;;;;;4974996;28;20034;-72
2022/08/14 03:04:31;;;;;;;0.25;0.20;;;17.00;96.80;;;;;;4975100;28;20027;-71
2022/08/14 03:07:01;;;;;;;0.50;0.10;;;17.10;97.50;;;;;;4974873;28;20483;-72
2022/08/14 03:09:29;;;;;;;0.32;0.30;;;17.00;97.00;;;;;;4974019;28;20034;-70
2022/08/14 03:11:57;;;;;;;1.10;0.40;;;16.90;96.80;;;;;;4973669;28;20031;-72
2022/08/14 03:14:24;;;;;;;0.95;0.20;;;17.00;97.30;;;;;;4973490;28;20031;-71
2022/08/14 03:16:52;;;;;;;0.82;0.38;;;16.80;97.10;;;;;;4974753;28;20064;-72
2022/08/14 03:19:21;;;;;;;1.38;0.38;;;16.80;97.30;;;;;;4973473;28;20031;-71
2022/08/14 03:21:49;;;;;;;0.50;0.20;;;16.70;98.10;;;;;;4973420;28;20026;-72
2022/08/14 03:24:17;;;;;;;0.40;0.20;;;16.40;97.50;;;;;;4957572;28;20073;-70
2022/08/14 03:26:46;;;;;;;0.75;0.30;;;16.30;98.50;;;;;;4974684;28;20548;-71
2022/08/14 03:29:20;;;;;;;0.57;0.20;;;16.20;98.10;;;;;;4974957;28;20029;-72
2022/08/14 03:31:50;;;;;;;0.93;0.38;;;16.30;99.10;;;;;;4973203;28;20037;-72
2022/08/14 03:34:18;;;;;;;1.52;0.52;;;16.90;98.60;;;;;;4973162;28;20030;-71
2022/08/14 03:36:46;;;;;;;0.95;0.13;;;17.40;98.50;;;;;;4973535;28;20042;-72
2022/08/14 03:39:13;;;;;;;0.55;0.10;;;17.70;97.00;;;;;;4973467;28;20097;-70
2022/08/14 03:41:41;;;;;;;0.20;0.17;;;17.70;96.70;;;;;;4974596;28;20090;-70
2022/08/14 03:44:08;;;;;;;0.60;0.20;;;17.40;96.60;;;;;;4974291;28;20030;-71
2022/08/14 03:46:38;;;;;;;1.05;0.30;;;17.20;97.00;;;;;;4974449;28;20043;-71
2022/08/14 03:49:07;;;;;;;1.25;1.10;;;17.00;97.50;;;;;;4973240;28;20046;-72
2022/08/14 03:51:36;;;;;;;0.55;0.10;;;17.10;98.00;;;;;;4973302;28;20049;-71
2022/08/14 03:54:11;;;;;;;1.42;0.50;;;17.30;96.70;;;;;;4974373;28;20027;-72
2022/08/14 03:56:43;;;;;;;0.40;0.30;;;17.40;96.50;;;;;;4973656;28;20039;-73
2022/08/14 03:59:12;;;;;;;0.65;0.10;;;17.40;96.40;;;;;;4972892;28;20090;-72
2022/08/14 04:01:40;;;;;;;1.58;0.40;;;17.60;96.30;;;;;;4973116;28;20030;-71
2022/08/14 04:04:09;;;;;;;0.17;0.10;;;17.90;97.10;;;;;;4974306;28;20081;-72
2022/08/14 04:06:38;;;;;;;2.58;1.42;;;17.70;96.50;;;;;;4974119;28;20027;-71
2022/08/14 04:09:07;;;;;;;0.52;0.20;;;17.60;97.80;;;;;;4974254;28;20502;-72
2022/08/14 04:11:38;;;;;;;0.25;0.10;;;17.60;97.20;;;;;;4974286;28;20097;-71
2022/08/14 04:14:06;;;;;;;0.35;0.20;;;17.50;96.10;;;;;;4972980;28;20027;-71
2022/08/14 04:16:35;;;;;;;0.28;0.10;;;17.00;96.60;;;;;;4977679;28;20081;-70
2022/08/14 04:19:03;;;;;;;0.68;0.20;;;16.80;97.10;;;;;;4976490;28;20036;-72
2022/08/14 04:21:31;;;;;;;0.30;0.17;;;16.80;98.00;;;;;;4977849;28;20030;-71
2022/08/14 04:24:00;;;;;;;0.45;0.20;;;17.00;97.20;;;;;;4977735;28;20412;-71
2022/08/14 04:26:30;;;;;;;0.47;0.10;;;17.20;97.20;;;;;;4977670;28;20031;-71
2022/08/14 04:28:59;;;;;;;0.87;0.20;;;17.10;98.10;;;;;;4975933;28;20031;-71
2022/08/14 04:31:27;;;;;;;0.80;0.10;;;17.10;98.40;;;;;;4977592;28;20019;-71
2022/08/14 04:33:54;;;;;;;0.10;0.10;;;16.80;97.30;;;;;;4977636;28;20046;-71
2022/08/14 04:36:22;;;;;;;2.38;0.28;;;17.00;97.30;;;;;;4976257;28;20030;-72
2022/08/14 04:44:21;;;;;;;0.20;0.13;;;17.00;96.20;;;;;;4977366;28;20065;-69
2022/08/14 04:49:47;;;;;;;1.27;0.25;;;17.00;96.50;;;;;;4954955;28;20546;-69
2022/08/14 04:52:15;;;;;;;0.20;0.17;;;17.10;96.50;;;;;;4977225;28;20015;-70
2022/08/14 04:54:42;;;;;;;0.55;0.13;;;17.10;97.00;;;;;;4977186;28;20051;-72
2022/08/14 04:57:10;;;;;;;0.93;0.20;;;17.30;97.20;;;;;;4975950;28;20089;-71
2022/08/14 04:59:37;;;;;;;0.52;0.13;;;17.30;96.80;;;;;;4977209;28;20035;-71
2022/08/14 05:02:05;;;;;;;0.30;0.20;;;17.40;97.10;;;;;;4975642;28;20033;-71
2022/08/14 05:04:32;;;;;;;1.10;0.17;;;17.40;96.70;;;;;;4977359;28;20027;-71
2022/08/14 05:07:00;;;;;;;1.85;0.10;;;17.30;96.80;;;;;;4975461;28;20117;-72
2022/08/14 05:09:28;;;;;;;0.77;0.10;;;17.10;96.90;;;;;;4975767;28;20453;-71
2022/08/14 05:11:55;;;;;;;0.47;0.10;;;17.00;96.80;;;;;;4976974;28;20027;-72
2022/08/14 05:14:23;;;;;;;0.57;0.13;;;17.00;96.80;;;;;;4976804;28;20464;-72
2022/08/14 05:16:51;;;;;;;0.75;0.10;;;17.00;96.80;;;;;;4976980;28;20514;-71
2022/08/14 05:19:18;;;;;;;0.93;0.10;;;17.10;97.20;;;;;;4975585;28;20533;-73
2022/08/14 05:21:45;;;;;;;0.10;0.10;;;17.00;97.20;;;;;;4976790;28;20026;-72
2022/08/14 05:24:13;;;;;;;0.57;0.05;;;17.00;97.30;;;;;;4976878;28;20443;-75
2022/08/14 05:26:43;;;;;;;0.55;0.10;;;17.00;98.20;;;;;;4976759;28;20030;-74
2022/08/14 05:29:10;;;;;;;0.00;0.00;;;16.90;98.30;;;;;;4976791;28;20511;-73
2022/08/14 05:31:40;;;;;;;0.93;0.10;;;16.80;98.40;;;;;;4975109;28;20471;-73
2022/08/14 05:34:09;;;;;;;0.10;0.08;;;16.70;98.80;;;;;;4975448;28;20114;-70
2022/08/14 05:36:37;;;;;;;1.00;0.10;;;16.70;98.80;;;;;;4975154;28;20038;-75
2022/08/14 05:39:05;;;;;;;0.32;0.10;;;16.70;98.70;;;;;;4975174;28;20081;-74
2022/08/14 05:41:33;;;;;;;0.68;0.10;;;16.70;98.90;;;;;;4976210;28;20105;-73
2022/08/14 05:44:01;;;;;;;1.55;0.10;;;16.60;97.70;;;;;;4976419;28;20027;-73
2022/08/14 05:46:28;;;;;;;0.45;0.10;;;16.50;98.10;;;;;;4974828;28;20046;-71
2022/08/14 05:48:58;;;;;;;0.20;0.10;;;16.50;97.60;;;;;;4975140;28;20037;-71
2022/08/14 05:51:27;;;;;;;0.60;0.10;;;16.40;98.00;;;;;;4976306;28;20479;-71
2022/08/14 05:53:55;;;;;;;0.10;0.10;;;16.30;97.50;;;;;;4976223;28;20106;-71
2022/08/14 05:56:24;;;;;;;0.20;0.10;;;16.20;97.80;;;;;;4974705;28;20034;-71
2022/08/14 05:58:52;;;;;;;0.40;0.13;;;16.20;97.80;;;;;;4976313;28;20023;-71
2022/08/14 06:01:20;;;;;;;0.35;0.10;;;16.10;98.00;;;;;;4976040;28;20023;-72
2022/08/14 06:03:47;;;;;;;0.10;0.10;;;16.00;98.50;;;;;;4974630;28;20023;-72
2022/08/14 06:06:15;;;;;;;1.35;0.13;;;15.90;98.70;;;;;;4974601;28;20031;-71
2022/08/14 06:08:42;;;;;;;0.40;0.32;;;15.90;98.90;;;;;;4976461;28;20106;-71
2022/08/14 06:11:10;;;;;;;0.85;0.08;;;15.80;98.80;;;;;;4974430;28;20023;-72
2022/08/14 06:13:40;;;;;;;0.30;0.10;;;15.70;99.10;;;;;;4975695;28;20494;-71
2022/08/14 06:16:08;;;;;;;0.35;0.10;;;15.70;99.40;;;;;;4974724;28;20110;-71
2022/08/14 06:18:36;;;;;;;0.30;0.20;;;15.70;99.20;;;;;;4975724;28;20065;-72
2022/08/14 06:21:04;;;;;;;0.28;0.10;;;15.60;99.30;;;;;;4974188;28;20173;-71
2022/08/14 06:23:31;;;;;;;0.20;0.20;;;15.60;99.90;;;;;;4975646;28;20383;-71
2022/08/14 06:25:59;;;;;;;0.68;0.17;;;15.50;99.90;;;;;;4975435;28;20037;-72
2022/08/14 06:28:27;;;;;;;0.57;0.20;;;15.50;99.90;;;;;;4975419;28;20391;-72
2022/08/14 06:30:54;;;;;;;0.43;0.20;;;15.50;99.90;;;;;;4974076;28;20027;-71
2022/08/14 06:33:22;;;;;;;0.38;0.20;;;15.50;99.90;;;;;;4974141;28;20054;-72
2022/08/14 06:35:49;;;;;;;0.40;0.20;;;15.40;99.90;;;;;;4973979;28;20035;-71
2022/08/14 06:38:21;;;;;;;0.43;0.20;;;15.40;99.90;;;;;;4974777;28;20450;-71
2022/08/14 06:40:50;;;;;;;0.40;0.20;;;15.30;99.90;;;;;;4975798;28;20022;-71
2022/08/14 06:43:19;;;;;;;0.30;0.20;;;15.20;99.90;;;;;;4973765;28;20089;-71
2022/08/14 06:45:48;;;;;;;0.40;0.30;;;15.10;99.90;;;;;;4974819;28;20047;-71
2022/08/14 06:48:22;;;;;;;0.45;0.20;;;15.10;99.90;;;;;;4974991;28;20041;-71
2022/08/14 06:50:51;;;;;;;0.40;0.30;;;15.10;99.90;;;;;;4975190;28;20078;-70
2022/08/14 06:53:19;;;;;;;0.35;0.20;;;15.00;99.90;;;;;;4975138;28;20077;-70
2022/08/14 06:55:48;;;;;;;0.35;0.10;;;15.00;99.90;;;;;;4973614;28;20550;-70
2022/08/14 06:58:17;;;;;;;0.22;0.15;;;14.80;99.90;;;;;;4974909;28;20023;-71
2022/08/14 07:06:19;;;;;;;0.38;0.20;;;14.60;99.90;;;;;;4975563;28;20034;-71
2022/08/14 07:08:47;;;;;;;0.22;0.20;;;14.50;99.90;;;;;;4974900;28;20106;-70
2022/08/14 07:11:14;;;;;;;0.45;0.20;;;14.40;99.90;;;;;;4973562;28;20395;-69
2022/08/14 07:13:42;;;;;;;0.20;0.15;;;14.30;99.90;;;;;;4973482;28;20050;-70
2022/08/14 07:16:11;;;;;;;0.70;0.40;;;14.20;99.90;;;;;;4973557;28;20034;-70
2022/08/14 07:18:40;;;;;;;0.60;0.45;;;14.10;99.90;;;;;;4957569;28;20456;-69
2022/08/14 07:21:08;;;;;;;1.00;0.50;;;14.10;99.90;;;;;;4973166;28;20030;-69
2022/08/14 07:23:36;;;;;;;0.60;0.40;;;14.10;99.90;;;;;;4973160;28;20030;-69
2022/08/14 07:26:06;;;;;;;0.30;0.20;;;14.00;99.90;;;;;;4974460;28;20027;-70
2022/08/14 07:28:36;;;;;;;0.68;0.28;;;14.20;99.90;;;;;;4974024;28;20030;-72
2022/08/14 07:31:07;;;;;;;0.40;0.20;;;14.20;99.90;;;;;;4973234;28;20030;-68
2022/08/14 07:33:44;;;;;;;0.75;0.30;;;14.30;99.90;;;;;;4973341;28;20373;-69
2022/08/14 07:36:14;;;;;;;0.65;0.20;;;14.20;99.90;;;;;;4973552;28;20491;-68
2022/08/14 07:38:43;;;;;;;0.40;0.27;;;14.20;99.90;;;;;;4974589;28;20458;-70
2022/08/14 07:41:13;;;;;;;0.60;0.20;;;14.10;99.90;;;;;;4974484;28;20031;-69
2022/08/14 07:43:42;;;;;;;0.60;0.10;;;14.10;99.90;;;;;;4974787;28;20550;-70
2022/08/14 07:46:15;;;;;;;0.22;0.15;;;14.10;99.90;;;;;;4974048;28;20460;-69
2022/08/14 07:48:42;;;;;;;0.20;0.13;;;14.10;99.90;;;;;;4974259;28;20019;-69
2022/08/14 07:51:10;;;;;;;0.35;0.20;;;14.00;99.90;;;;;;4975600;28;20019;-69
2022/08/14 07:53:38;;;;;;;1.70;0.30;;;13.90;99.90;;;;;;4978329;28;20054;-70
2022/08/14 07:56:06;;;;;;;0.63;0.20;;;13.80;99.90;;;;;;4978336;28;20025;-70
2022/08/14 07:58:33;;;;;;;0.45;0.40;;;13.80;99.90;;;;;;4976898;28;20031;-69
2022/08/14 08:01:01;;;;;;;0.20;0.20;;;13.70;99.90;;;;;;4978307;28;20463;-69
2022/08/14 08:03:33;;;;;;;1.00;0.30;;;13.70;99.90;;;;;;4978270;28;20503;-70
2022/08/14 08:06:01;;;;;;;0.43;0.10;;;13.50;99.90;;;;;;4976729;28;20058;-70
2022/08/14 08:08:30;;;;;;;0.50;0.28;;;13.50;99.90;;;;;;4978147;28;20026;-69
2022/08/14 08:10:59;;;;;;;0.20;0.20;;;13.50;99.90;;;;;;4978002;28;20102;-70
2022/08/14 08:13:27;;;;;;;0.60;0.30;;;13.40;99.90;;;;;;4977965;28;20158;-70
2022/08/14 08:15:56;;;;;;;0.70;0.30;;;13.50;99.90;;;;;;4977921;28;20503;-70
2022/08/14 08:18:25;;;;;;;0.38;0.30;;;13.40;99.90;;;;;;4977952;28;20046;-69
2022/08/14 08:20:55;;;;;;;0.10;0.10;;;13.30;99.90;;;;;;4976537;28;20035;-69
2022/08/14 08:23:25;;;;;;;0.50;0.22;;;13.30;99.90;;;;;;4977888;28;20019;-71
2022/08/14 08:25:52;;;;;;;0.50;0.30;;;13.40;99.90;;;;;;4976450;28;20046;-69
2022/08/14 08:28:26;;;;;;;1.08;0.28;;;13.30;99.90;;;;;;4976506;28;20119;-69
2022/08/14 08:30:56;;;;;;;0.75;0.47;;;13.30;99.90;;;;;;4977655;28;20015;-70
2022/08/14 08:33:26;;;;;;;1.25;0.52;;;13.10;99.90;;;;;;4976725;28;20034;-70
2022/08/14 08:35:59;;;;;;;0.50;0.28;;;13.10;99.90;;;;;;4977605;28;20037;-70
2022/08/14 08:38:27;;;;;;;0.50;0.32;;;13.00;99.90;;;;;;4977619;28;20023;-71
2022/08/14 08:40:57;;;;;;;1.67;0.43;;;13.00;99.90;;;;;;4976076;28;20074;-72
2022/08/14 08:43:26;;;;;;;1.30;0.50;;;12.90;99.90;;;;;;4976156;28;20029;-71
2022/08/14 08:46:07;;;;;;;0.70;0.57;;;12.90;99.90;;;;;;4977233;28;20038;-71
2022/08/14 08:48:52;;;;;;;0.43;0.28;;;12.80;99.90;;;;;;4977623;28;20018;-70
2022/08/14 08:51:32;;;;;;;1.27;0.60;;;12.80;99.90;;;;;;4976103;28;20038;-72
2022/08/14 08:54:25;;;;;;;1.13;0.40;;;12.70;99.90;;;;;;4976057;28;20023;-71
2022/08/14 08:56:52;;;;;;;0.93;0.40;;;12.80;99.90;;;;;;4975050;28;20035;-72
2022/08/14 08:59:24;;;;;;;1.15;0.60;;;12.70;99.90;;;;;;4975901;28;20451;-72
2022/08/14 09:01:54;;;;;;;0.63;0.57;;;12.60;99.90;;;;;;4976722;28;20026;-72
2022/08/14 09:04:24;;;;;;;0.85;0.60;;;12.60;99.90;;;;;;4976978;28;20038;-72
2022/08/14 09:06:51;;;;;;;0.93;0.60;;;12.50;99.90;;;;;;4976362;28;20540;-72
2022/08/14 09:09:27;;;;;;;1.13;0.55;;;12.50;99.90;;;;;;4975017;28;20027;-72
2022/08/14 09:11:57;;;;;;;0.50;0.30;;;12.40;99.90;;;;;;4975294;28;20109;-71
2022/08/14 09:14:30;;;;;;;0.80;0.50;;;12.50;99.90;;;;;;4976353;28;20089;-71
2022/08/14 09:16:59;;;;;;;0.90;0.60;;;12.50;99.90;;;;;;4976338;28;20022;-71
2022/08/14 09:19:27;;;;;;;0.77;0.52;;;12.40;99.90;;;;;;4974916;28;20373;-73
2022/08/14 09:21:55;;;;;;;1.65;0.63;;;12.20;99.90;;;;;;4976214;28;20546;-72
2022/08/14 09:24:22;;;;;;;1.20;0.73;;;12.00;99.90;;;;;;4976254;28;20039;-71
2022/08/14 09:26:52;;;;;;;1.52;0.70;;;12.00;99.90;;;;;;4976955;28;20468;-70
2022/08/14 09:29:19;;;;;;;1.17;0.60;;;12.00;99.90;;;;;;4959464;28;20027;-70
2022/08/14 09:31:55;;;;;;;1.50;0.73;;;12.00;99.90;;;;;;4975441;28;20052;-70
2022/08/14 09:34:43;;;;;;;0.90;0.70;;;12.10;99.90;;;;;;4976578;28;20023;-70
2022/08/14 09:37:43;;;;;;;0.80;0.70;;;12.00;99.90;;;;;;4977161;28;20063;-71
2022/08/14 09:40:29;;;;;;;0.82;0.60;;;12.10;99.90;;;;;;4975260;28;20026;-73
2022/08/14 09:43:23;;;;;;;0.57;0.50;;;12.10;99.90;;;;;;4975232;28;20042;-73
2022/08/14 09:45:56;;;;;;;2.10;0.80;;;12.00;99.90;;;;;;4976179;28;20411;-71
2022/08/14 09:48:24;;;;;;;1.38;0.77;;;11.90;99.90;;;;;;4976293;28;20069;-72
2022/08/14 09:50:56;;;;;;;0.60;0.60;;;11.80;99.90;;;;;;4976436;28;20387;-72
2022/08/14 09:53:40;;;;;;;2.25;0.95;;;11.70;99.90;;;;;;4974925;28;20081;-72
2022/08/14 09:56:08;;;;;;;0.80;0.80;;;11.60;99.90;;;;;;4976532;28;20034;-72
2022/08/14 09:58:41;;;;;;;1.67;0.95;;;11.50;99.90;;;;;;4974774;28;20027;-72
2022/08/14 10:01:14;;;;;;;2.40;0.80;;;11.40;99.90;;;;;;4975022;28;20027;-72
2022/08/14 10:03:59;;;;;;;1.50;1.10;;;11.30;99.90;;;;;;4976067;28;20027;-72
2022/08/14 10:06:29;;;;;;;1.33;0.80;;;11.20;99.90;;;;;;4974887;28;20114;-72
2022/08/14 10:09:05;;;;;;;0.88;0.75;;;11.10;99.90;;;;;;4976155;28;20031;-71
2022/08/14 10:11:37;;;;;;;2.20;0.90;;;11.10;99.90;;;;;;4975966;28;20109;-71
2022/08/14 10:14:16;;;;;;;1.98;0.90;;;11.10;99.90;;;;;;4973735;28;20023;-72
2022/08/14 10:16:46;;;;;;;0.88;0.80;;;11.10;99.90;;;;;;4976036;28;20157;-73
2022/08/14 10:19:17;;;;;;;1.10;0.80;;;11.00;99.90;;;;;;4975995;28;20034;-72
2022/08/14 10:22:09;;;;;;;1.23;0.85;;;10.90;99.90;;;;;;4974451;28;20117;-72
2022/08/14 10:24:45;;;;;;;1.75;1.10;;;10.90;99.90;;;;;;4974545;28;20030;-75
2022/08/14 10:27:24;;;;;;;3.20;1.15;;;10.80;99.90;;;;;;4975903;28;20077;-73
2022/08/14 10:29:53;;;;;;;1.13;0.88;;;10.80;99.90;;;;;;4974465;28;20023;-75
2022/08/14 10:32:21;;;;;;;1.10;0.93;;;10.80;99.90;;;;;;4974799;28;20019;-75
2022/08/14 10:34:49;;;;;;;1.20;0.70;;;10.80;99.90;;;;;;4974651;28;20062;-76
2022/08/14 10:37:19;;;;;;;1.00;0.82;;;10.80;99.90;;;;;;4975958;28;20030;-73
2022/08/14 10:39:59;;;;;;;1.92;1.00;;;10.70;99.90;;;;;;4974164;28;20038;-72
2022/08/14 10:42:40;;;;;;;1.80;0.70;;;10.70;99.90;;;;;;4975800;28;20023;-73
2022/08/14 10:45:31;;;;;;;1.65;0.70;;;10.60;99.90;;;;;;4974437;28;20297;-73
2022/08/14 10:47:58;;;;;;;;;;;10.50;99.90;;;;;;4975876;28;20030;-74
2022/08/14 10:50:37;;;;;;;1.48;0.95;;;10.50;99.90;;;;;;4975255;28;19970;-73
2022/08/14 10:53:05;;;;;;;0.85;0.65;;;10.50;99.90;;;;;;4974618;28;20022;-73
2022/08/14 10:55:38;;;;;;;1.17;0.75;;;10.50;99.90;;;;;;4973965;28;20095;-73
2022/08/14 10:58:11;;;;;;;1.23;0.60;;;10.50;99.90;;;;;;4975385;28;20029;-72
2022/08/14 11:01:04;;;;;;;1.35;0.68;;;10.40;99.90;;;;;;4975180;28;20022;-73
2022/08/14 11:03:40;;;;;;;0.65;0.60;;;10.40;99.90;;;;;;4974507;28;20027;-71
2022/08/14 11:06:22;;;;;;;1.00;0.80;;;10.40;99.90;;;;;;4974950;28;20034;-72
2022/08/14 11:08:50;;;;;;;0.63;0.60;;;10.40;99.90;;;;;;4973968;28;20490;-73
2022/08/14 11:11:20;;;;;;;1.70;0.80;;;10.30;99.90;;;;;;4974986;28;20026;-73
2022/08/14 11:13:49;;;;;;;0.50;0.50;;;10.30;99.90;;;;;;4974683;28;20023;-72
2022/08/14 11:16:17;;;;;;;0.73;0.50;;;10.20;99.90;;;;;;4973973;28;20036;-72
2022/08/14 11:18:47;;;;;;;1.92;0.80;;;10.20;99.90;;;;;;4975508;28;20022;-72
2022/08/14 11:21:21;;;;;;;1.10;0.70;;;10.20;99.90;;;;;;4973678;28;20034;-73
2022/08/14 11:23:49;;;;;;;1.20;0.70;;;10.20;99.90;;;;;;4973443;28;20037;-73
2022/08/14 11:26:18;;;;;;;1.25;0.70;;;10.10;99.90;;;;;;4974898;28;20038;-73
2022/08/14 11:28:48;;;;;;;0.73;0.50;;;10.20;99.90;;;;;;4973639;28;20037;-72
2022/08/14 11:31:20;;;;;;;1.07;0.63;;;10.20;99.90;;;;;;4974812;28;20030;-71
2022/08/14 11:33:56;;;;;;;0.75;0.60;;;10.20;99.90;;;;;;4974724;28;20033;-71
2022/08/14 11:36:28;;;;;;;0.85;0.60;;;10.20;99.90;;;;;;4973435;28;20026;-71
2022/08/14 11:38:56;;;;;;;0.50;0.40;;;10.20;99.90;;;;;;4974542;28;20108;-71
2022/08/14 11:41:26;;;;;;;0.85;0.50;;;10.20;99.90;;;;;;4975191;28;20019;-71
2022/08/14 11:43:53;;;;;;;1.35;0.85;;;10.10;99.90;;;;;;4974539;28;20023;-71
2022/08/14 11:46:22;;;;;;;0.70;0.50;;;10.10;99.90;;;;;;4972894;28;20047;-71
2022/08/14 11:48:54;;;;;;;0.68;0.40;;;10.10;99.90;;;;;;4974524;28;20077;-71
2022/08/14 11:51:27;;;;;;;0.70;0.60;;;10.10;99.90;;;;;;4974592;28;20515;-71
2022/08/14 11:54:02;;;;;;;1.05;0.60;;;10.10;99.90;;;;;;4957348;28;20027;-71
2022/08/14 11:56:44;;;;;;;1.25;0.50;;;10.10;99.90;;;;;;4973164;28;20373;-70
2022/08/14 11:59:21;;;;;;;0.68;0.60;;;10.00;99.90;;;;;;4972979;28;20027;-71
2022/08/14 12:01:49;;;;;;;0.50;0.40;;;10.00;99.90;;;;;;4974522;28;20392;-71
2022/08/14 12:04:19;;;;;;;1.17;0.30;;;10.00;99.90;;;;;;4974460;28;20030;-71
2022/08/14 12:06:55;;;;;;;1.00;0.50;;;10.10;99.90;;;;;;4974461;28;20031;-71
2022/08/14 12:09:36;;;;;;;0.40;0.22;;;10.10;99.90;;;;;;4973111;28;20026;-71
2022/08/14 12:12:20;;;;;;;1.13;0.32;;;10.10;99.90;;;;;;4974614;28;20361;-71
2022/08/14 12:14:56;;;;;;;0.47;0.40;;;10.10;99.90;;;;;;4974434;28;20086;-71
2022/08/14 12:17:28;;;;;;;0.98;0.30;;;10.10;99.90;;;;;;4974322;28;20098;-71
2022/08/14 12:19:58;;;;;;;0.95;0.30;;;10.20;99.90;;;;;;4972754;28;20031;-71
2022/08/14 12:22:35;;;;;;;0.10;0.10;;;10.30;99.90;;;;;;4974200;28;20086;-71
2022/08/14 12:25:06;;;;;;;0.43;0.30;;;10.40;99.90;;;;;;4974318;28;20105;-71
2022/08/14 12:27:49;;;;;;;0.73;0.32;;;10.40;99.90;;;;;;4972726;28;20038;-70
2022/08/14 12:30:38;;;;;;;0.77;0.35;;;10.50;99.90;;;;;;4974477;28;20034;-70
2022/08/14 12:33:20;;;;;;;0.63;0.30;;;10.60;99.90;;;;;;4974192;28;20034;-71
2022/08/14 12:35:50;;;;;;;1.52;0.22;;;10.60;99.90;;;;;;4974161;28;20023;-70
2022/08/14 12:38:17;;;;;;;0.40;0.40;;;10.60;99.90;;;;;;4977684;28;20034;-70
2022/08/14 12:40:52;;;;;;;0.20;0.13;;;10.50;99.90;;;;;;4977913;28;20027;-71
2022/08/14 12:43:21;;;;;;;1.20;0.40;;;10.40;99.90;;;;;;4977566;28;20488;-71
2022/08/14 12:45:53;;;;;;;0.30;0.20;;;10.40;99.90;;;;;;4977296;28;20058;-70
2022/08/14 12:48:22;;;;;;;0.20;0.20;;;10.40;99.90;;;;;;4977618;28;20106;-71
2022/08/14 12:50:51;;;;;;;0.47;0.20;;;10.50;99.90;;;;;;4977555;28;20392;-72
2022/08/14 12:53:19;;;;;;;0.10;0.10;;;10.60;99.90;;;;;;4976253;28;20388;-72
2022/08/14 12:55:59;;;;;;;0.10;0.10;;;10.70;99.90;;;;;;4977484;28;20487;-72
2022/08/14 12:58:30;;;;;;;0.50;0.30;;;10.70;99.90;;;;;;4977342;28;20019;-72
2022/08/14 13:01:00;;;;;;;0.70;0.20;;;10.80;99.90;;;;;;4977674;28;20026;-72
2022/08/14 13:03:29;;;;;;;0.63;0.10;;;10.80;99.90;;;;;;4977407;28;20114;-72
2022/08/14 13:05:56;;;;;;;0.55;0.10;;;10.90;99.90;;;;;;4977255;28;20315;-73
2022/08/14 13:08:24;;;;;;;0.30;0.17;;;10.80;99.90;;;;;;4977185;28;20416;-72
2022/08/14 13:10:53;;;;;;;0.30;0.20;;;10.70;99.90;;;;;;4977293;28;20030;-72
2022/08/14 13:13:22;;;;;;;0.70;0.20;;;10.70;99.90;;;;;;4977220;28;20022;-72
2022/08/14 13:15:53;;;;;;;1.42;0.30;;;10.70;99.90;;;;;;4977339;28;20476;-73
2022/08/14 13:18:23;;;;;;;0.20;0.20;;;10.60;99.90;;;;;;4977577;28;20386;-74
2022/08/14 13:20:53;;;;;;;0.38;0.20;;;10.60;99.90;;;;;;4975878;28;20027;-73
2022/08/14 13:23:24;;;;;;;0.20;0.17;;;10.50;99.90;;;;;;4976971;28;20023;-71